Time;durP1;ratioP1;P1;durP2;ratioP2;P2;SDS_P1;SDS_P2;PMS_P1;PMS_P2;Temp;Humidity;BMP_temperature;BMP_pressure;BME280_temperature;BME280_humidity;BME280_pressure;Samples;Min_cycle;Max_cycle;Signal;HPM_P1;HPM_P2
2023/12/19 00:07:08;;;;;;;0.40;0.40;;;;;;;10.29;41.24;102350.38;4874614;29;20501;-92
2023/12/19 00:09:35;;;;;;;0.22;0.20;;;;;;;10.32;41.22;102344.03;4884612;29;20460;-94
2023/12/19 00:12:01;;;;;;;2.10;1.58;;;;;;;10.25;41.55;102341.00;4952125;23;20445;-93
2023/12/19 00:14:30;;;;;;;0.37;0.37;;;;;;;10.07;41.99;102339.91;4868318;29;20449;-94
2023/12/19 00:16:58;;;;;;;0.22;0.22;;;;;;;10.06;41.79;102340.84;4868242;29;20430;-91
2023/12/19 00:19:29;;;;;;;0.30;0.30;;;;;;;10.18;41.63;102349.63;4867662;29;20423;-91
2023/12/19 00:21:56;;;;;;;0.30;0.30;;;;;;;10.11;41.47;102343.97;4849350;29;20445;-93
2023/12/19 00:24:26;;;;;;;0.10;0.10;;;;;;;10.05;42.23;102344.50;4835779;29;20778;-92
2023/12/19 00:26:51;;;;;;;0.13;0.13;;;;;;;10.00;42.28;102349.31;4849709;29;20429;-93
2023/12/19 00:29:17;;;;;;;0.27;0.27;;;;;;;10.08;41.98;102341.56;4852262;29;20944;-93
2023/12/19 00:31:44;;;;;;;0.13;0.13;;;;;;;10.16;41.75;102362.16;4854964;29;20467;-93
2023/12/19 00:34:13;;;;;;;0.10;0.10;;;;;;;10.21;41.80;102360.81;4868755;29;20471;-92
2023/12/19 00:36:40;;;;;;;0.32;0.32;;;;;;;10.12;41.84;102357.09;4884127;29;20482;-92
2023/12/19 00:39:05;;;;;;;0.10;0.10;;;;;;;10.08;41.87;102346.88;4857558;29;20406;-94
2023/12/19 00:41:31;;;;;;;0.30;0.30;;;;;;;10.16;41.87;102359.50;4850330;29;20440;-94
2023/12/19 00:44:03;;;;;;;0.20;0.20;;;;;;;9.97;41.76;102353.03;4847522;29;20429;-94
2023/12/19 00:46:29;;;;;;;0.20;0.20;;;;;;;9.84;42.54;102365.63;4846174;29;20988;-93
2023/12/19 00:49:00;;;;;;;0.28;0.28;;;;;;;9.62;43.09;102359.41;4845782;29;20406;-92
2023/12/19 00:51:26;;;;;;;0.77;0.77;;;;;;;9.59;43.54;102364.09;4845960;29;20493;-93
2023/12/19 00:53:54;;;;;;;0.10;0.10;;;;;;;9.52;43.31;102364.56;4862622;29;20412;-95
2023/12/19 00:56:20;;;;;;;0.28;0.28;;;;;;;9.61;42.94;102354.22;4847945;29;20433;-94
2023/12/19 00:58:45;;;;;;;0.20;0.20;;;;;;;9.74;42.96;102362.84;4851654;29;20778;-96
2023/12/19 01:01:14;;;;;;;0.30;0.30;;;;;;;9.75;42.99;102357.44;4849843;29;20808;-93
2023/12/19 01:03:41;;;;;;;0.20;0.20;;;;;;;9.58;43.17;102334.16;4851856;29;21221;-96
2023/12/19 01:06:07;;;;;;;0.10;0.10;;;;;;;9.73;43.03;102347.94;4856934;29;20394;-95
2023/12/19 01:08:36;;;;;;;0.10;0.10;;;;;;;9.78;42.93;102345.78;4849960;29;20405;-94
2023/12/19 01:11:02;;;;;;;0.40;0.40;;;;;;;9.87;43.07;102350.31;4852852;29;20401;-94
2023/12/19 01:13:28;;;;;;;0.30;0.30;;;;;;;9.88;43.05;102351.16;4885195;24;20467;-93
2023/12/19 01:15:54;;;;;;;0.30;0.30;;;;;;;9.91;42.66;102350.91;4827830;29;20481;-91
2023/12/19 01:18:20;;;;;;;0.10;0.10;;;;;;;10.03;42.62;102344.63;4821127;29;20905;-94
2023/12/19 01:20:47;;;;;;;0.20;0.20;;;;;;;10.08;42.97;102341.56;4823287;29;20400;-94
2023/12/19 01:23:14;;;;;;;0.20;0.20;;;;;;;10.07;43.08;102347.84;4820663;29;20482;-94
2023/12/19 01:25:44;;;;;;;0.40;0.40;;;;;;;9.92;43.05;102336.69;4826209;29;20416;-95
2023/12/19 01:28:17;;;;;;;0.30;0.20;;;;;;;10.01;42.97;102328.00;4840634;29;20444;-94
2023/12/19 01:30:42;;;;;;;0.80;0.80;;;;;;;10.04;42.98;102322.44;4810707;29;20990;-93
2023/12/19 01:33:24;;;;;;;0.10;0.10;;;;;;;10.00;42.86;102320.19;4806963;29;20409;-94
2023/12/19 01:35:50;;;;;;;0.10;0.10;;;;;;;10.06;42.95;102322.31;4824134;29;20469;-94
2023/12/19 01:38:16;;;;;;;0.20;0.20;;;;;;;10.15;42.64;102324.19;4827231;29;20448;-94
2023/12/19 01:40:43;;;;;;;0.30;0.30;;;;;;;10.19;42.50;102324.78;4832113;29;20415;-96
2023/12/19 01:43:20;;;;;;;0.20;0.20;;;;;;;10.32;42.25;102326.31;4833423;29;20418;-95
2023/12/19 01:45:52;;;;;;;0.40;0.40;;;;;;;10.38;42.42;102332.06;4822172;29;20432;-96
2023/12/19 01:48:25;;;;;;;0.50;0.30;;;;;;;10.32;42.14;102315.72;4807576;29;20421;-95
2023/12/19 01:50:54;;;;;;;0.40;0.30;;;;;;;10.35;42.46;102301.34;4810988;29;20413;-94
2023/12/19 01:53:25;;;;;;;0.20;0.20;;;;;;;10.36;42.53;102308.34;4812808;29;20428;-96
2023/12/19 01:55:53;;;;;;;0.10;0.10;;;;;;;10.39;42.10;102323.13;4819660;29;20453;-93
2023/12/19 01:58:30;;;;;;;0.30;0.30;;;;;;;10.22;42.35;102311.28;4825715;29;20432;-96
2023/12/19 02:00:57;;;;;;;0.13;0.13;;;;;;;10.30;42.57;102314.97;4813729;29;20413;-94
2023/12/19 02:03:25;;;;;;;0.20;0.20;;;;;;;10.33;42.13;102314.75;4811704;29;20648;-96
2023/12/19 02:05:52;;;;;;;0.20;0.20;;;;;;;10.32;42.15;102318.38;4837142;29;20400;-95
2023/12/19 02:08:19;;;;;;;0.30;0.30;;;;;;;10.36;42.51;102321.59;4816103;29;20413;-95
2023/12/19 02:10:53;;;;;;;0.55;0.55;;;;;;;10.40;41.96;102325.66;4837969;29;20417;-96
2023/12/19 02:13:21;;;;;;;0.10;0.10;;;;;;;10.38;41.95;102306.41;4826781;29;20437;-95
2023/12/19 02:15:49;;;;;;;0.17;0.17;;;;;;;10.35;42.01;102304.00;4826124;29;20472;-96
2023/12/19 02:18:21;;;;;;;0.20;0.20;;;;;;;10.35;42.52;102308.47;4826278;29;20405;-96
2023/12/19 02:26:36;;;;;;;0.20;0.20;;;;;;;10.43;41.85;102316.63;4842760;29;20473;-93
2023/12/19 02:29:07;;;;;;;0.37;0.30;;;;;;;10.32;42.71;102313.06;4816394;29;20436;-94
2023/12/19 02:31:38;;;;;;;0.30;0.30;;;;;;;10.11;42.84;102309.53;4822270;29;20414;-96
2023/12/19 02:34:04;;;;;;;0.30;0.30;;;;;;;10.04;43.38;102303.88;4823611;29;20397;-94
2023/12/19 02:36:30;;;;;;;0.15;0.15;;;;;;;10.03;43.52;102304.00;4831107;29;20405;-93
2023/12/19 02:41:26;;;;;;;0.30;0.30;;;;;;;10.00;43.28;102314.88;4825346;29;20464;-95
2023/12/19 02:43:52;;;;;;;0.17;0.17;;;;;;;10.02;43.22;102310.28;4834598;29;20419;-94
2023/12/19 02:46:18;;;;;;;0.10;0.10;;;;;;;10.02;43.12;102303.19;4852578;29;20427;-94
2023/12/19 02:48:44;;;;;;;0.30;0.30;;;;;;;9.98;43.29;102303.56;4847310;29;20459;-92
2023/12/19 02:51:09;;;;;;;0.32;0.30;;;;;;;9.96;43.44;102303.69;4838541;29;20418;-93
2023/12/19 02:53:35;;;;;;;0.10;0.10;;;;;;;9.92;43.56;102292.50;4829079;29;20397;-93
2023/12/19 02:56:01;;;;;;;0.10;0.10;;;;;;;9.90;43.62;102290.94;4829562;29;20423;-93
2023/12/19 02:58:27;;;;;;;0.20;0.20;;;;;;;10.07;43.10;102295.69;4829386;29;20415;-94
2023/12/19 03:00:53;;;;;;;0.60;0.60;;;;;;;10.11;43.29;102298.91;4846729;29;20471;-93
2023/12/19 03:03:21;;;;;;;0.40;0.40;;;;;;;10.15;43.22;102303.00;4832320;29;20439;-95
2023/12/19 03:05:47;;;;;;;0.10;0.10;;;;;;;10.00;43.13;102283.91;4854166;29;20395;-93
2023/12/19 03:08:13;;;;;;;0.20;0.20;;;;;;;9.89;43.35;102292.75;4848788;29;20428;-92
2023/12/19 03:10:38;;;;;;;0.40;0.40;;;;;;;9.88;43.56;102293.72;4850432;29;20415;-93
2023/12/19 03:13:04;;;;;;;0.20;0.20;;;;;;;9.87;43.88;102300.00;4833138;29;20437;-93
2023/12/19 03:15:30;;;;;;;0.10;0.10;;;;;;;9.73;43.90;102298.47;4830397;29;20419;-92
2023/12/19 03:17:55;;;;;;;0.20;0.20;;;;;;;9.49;44.51;102288.06;4829745;29;20506;-93
2023/12/19 03:20:21;;;;;;;0.10;0.10;;;;;;;9.61;44.12;102296.81;4829649;29;20411;-93
2023/12/19 03:22:47;;;;;;;0.40;0.40;;;;;;;9.61;44.20;102283.56;4845756;29;20419;-91
2023/12/19 03:25:12;;;;;;;0.10;0.10;;;;;;;9.59;44.38;102284.69;4828433;29;20403;-95
2023/12/19 03:27:38;;;;;;;0.22;0.22;;;;;;;9.58;44.20;102286.50;4797083;29;20409;-93
2023/12/19 03:30:07;;;;;;;0.30;0.30;;;;;;;9.49;44.23;102273.97;4812470;29;20448;-94
2023/12/19 03:32:32;;;;;;;0.20;0.20;;;;;;;9.60;43.89;102286.34;4824810;29;20492;-91
2023/12/19 03:34:58;;;;;;;0.22;0.22;;;;;;;9.66;44.27;102286.69;4823945;29;20492;-92
2023/12/19 03:37:24;;;;;;;1.00;0.90;;;;;;;9.72;44.00;102288.00;4824930;29;20408;-92
2023/12/19 03:39:49;;;;;;;0.10;0.10;;;;;;;9.68;44.04;102289.22;4823941;29;20432;-87
2023/12/19 03:42:15;;;;;;;0.13;0.13;;;;;;;9.70;43.67;102300.53;4824440;29;20497;-92
2023/12/19 03:44:43;;;;;;;0.10;0.10;;;;;;;9.56;44.11;102286.63;4825508;29;20401;-93
2023/12/19 03:47:13;;;;;;;0.10;0.10;;;;;;;9.59;43.92;102293.44;4824806;29;20412;-92
2023/12/19 03:49:40;;;;;;;1.50;1.40;;;;;;;9.39;44.52;102287.13;4824616;29;20401;-92
2023/12/19 03:52:06;;;;;;;0.30;0.30;;;;;;;9.33;44.52;102295.56;4824130;29;20417;-93
2023/12/19 03:54:31;;;;;;;0.15;0.15;;;;;;;9.33;44.37;102282.34;4809524;29;20408;-91
2023/12/19 03:56:57;;;;;;;0.30;0.30;;;;;;;9.53;44.56;102296.63;4808874;29;20416;-92
2023/12/19 03:59:22;;;;;;;0.20;0.20;;;;;;;9.66;44.40;102285.84;4808964;29;20424;-93
2023/12/19 04:01:48;;;;;;;0.30;0.23;;;;;;;9.61;44.64;102278.28;4823290;29;20405;-93
2023/12/19 04:04:14;;;;;;;0.40;0.20;;;;;;;9.52;44.60;102277.22;4810204;29;20432;-91
2023/12/19 04:06:43;;;;;;;0.20;0.20;;;;;;;9.57;44.51;102287.44;4810926;29;20412;-91
2023/12/19 04:09:10;;;;;;;0.20;0.20;;;;;;;9.44;45.09;102277.00;4827675;29;20420;-94
2023/12/19 04:11:36;;;;;;;1.50;0.40;;;;;;;9.55;44.32;102273.50;4830009;29;20424;-91
2023/12/19 04:14:02;;;;;;;0.10;0.10;;;;;;;9.56;44.32;102280.47;4825068;29;20409;-91
2023/12/19 04:16:28;;;;;;;0.20;0.20;;;;;;;9.68;44.39;102291.88;4807508;29;20482;-92
2023/12/19 04:18:54;;;;;;;0.20;0.20;;;;;;;9.77;44.17;102286.66;4802333;29;20449;-91
2023/12/19 04:21:20;;;;;;;0.17;0.17;;;;;;;9.73;43.98;102287.88;4793812;29;20485;-94
2023/12/19 04:23:45;;;;;;;0.40;0.40;;;;;;;9.88;43.67;102308.78;4793427;29;20427;-92
2023/12/19 04:26:20;;;;;;;0.40;0.20;;;;;;;9.77;44.28;102297.25;4792030;29;20407;-92
2023/12/19 04:28:47;;;;;;;0.22;0.22;;;;;;;9.83;44.15;102295.94;4791994;29;20403;-92
2023/12/19 04:31:13;;;;;;;0.70;0.70;;;;;;;9.81;43.92;102310.25;4792165;29;20502;-92
2023/12/19 04:33:38;;;;;;;0.30;0.30;;;;;;;9.84;44.06;102315.28;4789972;29;20497;-92
2023/12/19 04:36:06;;;;;;;0.70;0.70;;;;;;;9.99;43.57;102306.06;4789843;29;20832;-89
2023/12/19 04:38:32;;;;;;;0.28;0.28;;;;;;;10.05;43.41;102297.63;4804641;29;20411;-89
2023/12/19 04:40:58;;;;;;;0.20;0.20;;;;;;;10.06;43.52;102311.72;4788782;29;20643;-84
2023/12/19 04:43:24;;;;;;;0.10;0.10;;;;;;;10.15;43.49;102303.00;4789543;29;20450;-88
2023/12/19 04:45:50;;;;;;;0.10;0.10;;;;;;;10.18;43.44;102299.25;4789058;29;20437;-85
2023/12/19 04:48:16;;;;;;;0.10;0.10;;;;;;;10.24;43.33;102293.44;4805138;29;20413;-88
2023/12/19 04:50:42;;;;;;;0.20;0.20;;;;;;;10.22;43.11;102287.44;4789646;29;20490;-88
2023/12/19 04:53:13;;;;;;;0.20;0.20;;;;;;;10.31;43.00;102302.59;4792874;29;20410;-87
2023/12/19 04:55:38;;;;;;;0.40;0.40;;;;;;;10.29;43.48;102294.72;4801962;29;20414;-85
2023/12/19 04:58:04;;;;;;;0.80;0.30;;;;;;;10.31;43.25;102294.63;4794269;29;20411;-88
2023/12/19 05:00:29;;;;;;;0.83;0.83;;;;;;;10.33;42.91;102306.81;4805071;29;20403;-90
2023/12/19 05:02:55;;;;;;;0.20;0.20;;;;;;;10.28;43.05;102303.66;4789741;29;20422;-88
2023/12/19 05:05:21;;;;;;;0.63;0.63;;;;;;;10.28;42.92;102308.09;4805675;29;20488;-87
2023/12/19 05:07:49;;;;;;;0.40;0.40;;;;;;;10.32;42.99;102310.41;4794810;29;20464;-84
2023/12/19 05:10:15;;;;;;;0.37;0.37;;;;;;;10.35;42.95;102306.66;4797760;29;20448;-87
2023/12/19 05:12:41;;;;;;;0.60;0.30;;;;;;;10.33;43.40;102311.25;4818751;29;20489;-88
2023/12/19 05:15:07;;;;;;;0.63;0.63;;;;;;;10.29;43.31;102300.03;4802347;29;20421;-85
2023/12/19 05:17:32;;;;;;;0.40;0.40;;;;;;;10.16;43.32;102296.75;4802441;29;20411;-86
2023/12/19 05:19:59;;;;;;;0.63;0.63;;;;;;;10.12;43.09;102311.22;4815485;29;20534;-91
2023/12/19 05:22:25;;;;;;;0.20;0.20;;;;;;;10.02;43.34;102311.13;4797288;29;20491;-89
2023/12/19 05:25:02;;;;;;;0.32;0.32;;;;;;;9.85;43.74;102319.59;4796665;29;20497;-91
2023/12/19 05:27:31;;;;;;;0.57;0.57;;;;;;;9.77;43.73;102310.47;4799815;29;20787;-92
2023/12/19 05:30:43;;;;;;;1.17;0.77;;;;;;;9.80;43.94;102308.56;4799850;29;20761;-90
2023/12/19 05:36:36;;;;;;;0.40;0.40;;;;;;;9.47;44.24;102300.59;4815976;29;20420;-91
2023/12/19 05:39:02;;;;;;;0.45;0.45;;;;;;;9.43;44.49;102296.50;4810039;29;20515;-84
2023/12/19 05:41:28;;;;;;;0.43;0.43;;;;;;;9.40;44.71;102303.84;4793879;29;20422;-89
2023/12/19 05:43:59;;;;;;;1.20;0.70;;;;;;;9.34;44.91;102300.72;4793763;29;20498;-89
2023/12/19 05:46:26;;;;;;;0.10;0.10;;;;;;;9.36;44.86;102303.25;4810803;29;20413;-88
2023/12/19 05:49:00;;;;;;;0.15;0.15;;;;;;;9.48;44.84;102318.16;4794303;29;20506;-87
2023/12/19 05:51:26;;;;;;;0.60;0.60;;;;;;;9.42;44.57;102301.91;4795771;29;20406;-88
2023/12/19 05:53:52;;;;;;;0.20;0.20;;;;;;;9.48;44.09;102306.72;4807380;29;20810;-88
2023/12/19 05:56:18;;;;;;;0.20;0.20;;;;;;;9.57;44.15;102313.91;4795352;29;20417;-88
2023/12/19 05:58:46;;;;;;;0.30;0.30;;;;;;;9.68;43.94;102318.34;4796484;29;20418;-88
2023/12/19 06:01:12;;;;;;;0.22;0.22;;;;;;;9.70;43.69;102314.59;4805781;29;20418;-88
2023/12/19 06:03:38;;;;;;;0.40;0.40;;;;;;;9.68;44.22;102311.22;4802058;29;20428;-87
2023/12/19 06:06:04;;;;;;;0.10;0.10;;;;;;;9.73;43.66;102316.16;4812638;29;20787;-89
2023/12/19 06:08:30;;;;;;;0.20;0.20;;;;;;;9.62;43.54;102306.44;4807207;29;20407;-88
2023/12/19 06:10:55;;;;;;;0.30;0.30;;;;;;;9.67;44.03;102314.00;4830331;29;20409;-87
2023/12/19 06:13:21;;;;;;;0.30;0.30;;;;;;;9.57;44.13;102312.09;4811838;29;20405;-90
2023/12/19 06:15:47;;;;;;;0.20;0.20;;;;;;;9.58;44.14;102323.56;4821197;29;20809;-86
2023/12/19 06:18:16;;;;;;;0.38;0.38;;;;;;;9.66;43.93;102315.00;4798986;29;20967;-86
2023/12/19 06:20:42;;;;;;;0.33;0.33;;;;;;;9.53;44.26;102305.38;4809387;29;20533;-87
2023/12/19 06:23:09;;;;;;;0.30;0.30;;;;;;;9.36;44.58;102309.41;4831203;29;20418;-89
2023/12/19 06:25:38;;;;;;;1.90;1.27;;;;;;;9.25;45.11;102296.16;4822557;29;20433;-90
2023/12/19 06:28:05;;;;;;;0.20;0.20;;;;;;;9.20;44.89;102301.00;4845514;29;20444;-86
2023/12/19 06:30:31;;;;;;;0.90;0.90;;;;;;;9.12;45.48;102298.94;4806620;29;20418;-90
2023/12/19 06:32:57;;;;;;;0.28;0.28;;;;;;;9.07;45.62;102297.63;4806034;29;20940;-89
2023/12/19 06:35:30;;;;;;;0.28;0.28;;;;;;;9.05;45.68;102303.03;4807944;29;20410;-91
2023/12/19 06:38:01;;;;;;;0.10;0.10;;;;;;;9.05;46.02;102300.38;4824190;29;20414;-93
2023/12/19 06:40:46;;;;;;;1.10;0.50;;;;;;;8.98;46.09;102304.47;4801443;29;20465;-94
2023/12/19 06:43:12;;;;;;;0.20;0.20;;;;;;;8.98;46.17;102308.00;4823984;29;20425;-91
2023/12/19 06:45:50;;;;;;;1.00;1.00;;;;;;;9.04;46.01;102305.78;4827463;29;20405;-92
2023/12/19 06:48:18;;;;;;;0.40;0.40;;;;;;;9.15;46.04;102311.94;4815485;29;20876;-91
2023/12/19 06:50:44;;;;;;;0.30;0.30;;;;;;;9.13;45.38;102298.00;4821049;29;20440;-91
2023/12/19 06:53:10;;;;;;;0.60;0.50;;;;;;;9.18;46.40;102309.06;4818753;29;20442;-92
2023/12/19 06:55:41;;;;;;;0.47;0.47;;;;;;;9.18;46.41;102306.41;4821351;29;20409;-92
2023/12/19 06:58:08;;;;;;;1.50;1.50;;;;;;;9.21;46.25;102312.41;4824466;29;20410;-89
2023/12/19 07:00:40;;;;;;;0.73;0.73;;;;;;;9.19;46.28;102312.53;4826381;29;20437;-94
2023/12/19 07:03:15;;;;;;;0.13;0.13;;;;;;;9.24;46.06;102301.56;4839396;29;20442;-91
2023/12/19 07:05:56;;;;;;;0.40;0.40;;;;;;;9.18;46.34;102301.13;4826615;29;20426;-95
2023/12/19 08:28:42;;;;;;;0.22;0.22;;;;;;;12.52;42.55;102274.13;4812300;29;20956;-90
2023/12/19 08:31:08;;;;;;;0.10;0.10;;;;;;;12.85;42.79;102268.41;4787402;30;20428;-86
2023/12/19 08:33:34;;;;;;;0.20;0.20;;;;;;;13.11;42.54;102263.25;4776862;30;20404;-89
2023/12/19 08:35:59;;;;;;;0.10;0.10;;;;;;;13.17;42.01;102262.66;4776731;30;20445;-90
2023/12/19 08:38:26;;;;;;;0.10;0.10;;;;;;;13.25;41.31;102267.22;4777873;30;20413;-93
2023/12/19 08:51:17;;;;;;;0.70;0.30;;;;;;;13.60;39.93;102249.66;4810964;29;20450;-85
2023/12/19 08:53:46;;;;;;;0.10;0.10;;;;;;;13.66;39.80;102251.69;4806159;29;20420;-87
2023/12/19 08:56:12;;;;;;;0.20;0.20;;;;;;;13.79;39.69;102248.66;4805007;29;20461;-88
2023/12/19 08:58:38;;;;;;;0.37;0.20;;;;;;;13.63;39.42;102239.53;4803861;29;20410;-87
2023/12/19 09:01:05;;;;;;;0.10;0.10;;;;;;;13.70;39.07;102251.25;4809567;29;20420;-85
2023/12/19 09:03:31;;;;;;;0.20;0.20;;;;;;;14.01;39.23;102245.50;4827961;29;20467;-89
2023/12/19 09:05:58;;;;;;;0.10;0.10;;;;;;;14.03;38.46;102240.84;4815463;29;20441;-87
2023/12/19 09:08:24;;;;;;;0.40;0.40;;;;;;;14.10;38.72;102235.75;4817734;29;20420;-88
2023/12/19 09:10:49;;;;;;;0.20;0.20;;;;;;;14.24;38.67;102223.66;4816039;29;20437;-86
2023/12/19 09:13:17;;;;;;;0.38;0.38;;;;;;;14.26;38.07;102227.00;4811086;29;20548;-86
2023/12/19 09:15:44;;;;;;;0.10;0.10;;;;;;;14.14;37.91;102205.94;4810590;29;20490;-90
2023/12/19 09:18:09;;;;;;;0.13;0.13;;;;;;;14.09;37.69;102205.56;4813783;29;20417;-91
2023/12/19 09:20:36;;;;;;;0.20;0.20;;;;;;;14.30;37.73;102207.84;4826956;29;20516;-88
2023/12/19 09:23:03;;;;;;;0.20;0.20;;;;;;;14.40;38.07;102197.06;4817817;29;20481;-92
2023/12/19 09:25:29;;;;;;;0.10;0.10;;;;;;;14.51;37.67;102199.47;4813565;29;20417;-85
2023/12/19 09:27:55;;;;;;;0.30;0.20;;;;;;;14.47;37.51;102195.44;4816003;29;20404;-87
2023/12/19 09:30:21;;;;;;;0.10;0.10;;;;;;;14.67;37.33;102180.03;4814961;29;20401;-90
2023/12/19 09:32:47;;;;;;;0.20;0.20;;;;;;;14.73;36.95;102178.59;4818001;29;20480;-87
2023/12/19 09:35:15;;;;;;;0.15;0.15;;;;;;;14.78;36.94;102164.72;4800901;29;20414;-88
2023/12/19 09:37:42;;;;;;;0.17;0.15;;;;;;;15.00;37.12;102169.47;4830867;29;20420;-90
2023/12/19 09:40:26;;;;;;;0.10;0.10;;;;;;;14.98;36.80;102158.13;4816934;29;20408;-89
2023/12/19 09:42:54;;;;;;;0.40;0.40;;;;;;;14.91;36.47;102157.94;4813720;29;21026;-89
2023/12/19 09:45:20;;;;;;;0.75;0.75;;;;;;;14.94;36.67;102154.09;4810402;29;20431;-89
2023/12/19 09:48:02;;;;;;;0.20;0.20;;;;;;;15.22;36.55;102157.31;4795166;29;20933;-87
2023/12/19 09:50:28;;;;;;;0.20;0.20;;;;;;;15.31;35.99;102143.97;4822363;29;20496;-90
2023/12/19 09:53:00;;;;;;;0.10;0.10;;;;;;;15.33;35.73;102148.16;4794523;29;20449;-88
2023/12/19 09:55:29;;;;;;;0.20;0.20;;;;;;;15.49;36.14;102133.97;4776151;29;20479;-89
2023/12/19 09:58:00;;;;;;;0.25;0.25;;;;;;;15.47;35.88;102130.63;4795862;29;20823;-91
2023/12/19 10:00:34;;;;;;;0.30;0.30;;;;;;;15.49;35.91;102129.44;4778625;29;20430;-92
2023/12/19 10:03:00;;;;;;;0.30;0.30;;;;;;;15.67;35.66;102128.44;4805486;29;20426;-87
2023/12/19 10:05:27;;;;;;;0.10;0.10;;;;;;;15.68;35.65;102130.09;4793765;29;20401;-88
2023/12/19 10:08:01;;;;;;;0.30;0.20;;;;;;;15.77;35.43;102122.94;4783398;29;20488;-89
2023/12/19 10:10:53;;;;;;;0.20;0.20;;;;;;;15.74;35.32;102110.75;4809683;29;20410;-89
2023/12/19 10:13:28;;;;;;;0.20;0.20;;;;;;;15.91;35.41;102102.69;4779549;29;20407;-88
2023/12/19 10:16:08;;;;;;;0.13;0.13;;;;;;;15.92;35.09;102101.66;4795336;29;20413;-89
2023/12/19 10:18:42;;;;;;;0.20;0.20;;;;;;;16.08;34.95;102107.00;4763450;29;20407;-89
2023/12/19 10:21:15;;;;;;;0.30;0.30;;;;;;;15.98;34.64;102099.16;4783615;29;20407;-89
2023/12/19 10:23:44;;;;;;;0.20;0.20;;;;;;;16.04;34.67;102093.13;4794555;29;20884;-87
2023/12/19 10:26:10;;;;;;;0.10;0.10;;;;;;;16.18;34.56;102080.03;4792469;29;20493;-87
2023/12/19 10:28:44;;;;;;;2.03;0.83;;;;;;;16.14;34.51;102084.06;4793519;29;20485;-86
2023/12/19 10:31:12;;;;;;;0.40;0.40;;;;;;;16.16;34.44;102082.88;4795998;29;20411;-86
2023/12/19 10:33:42;;;;;;;0.65;0.65;;;;;;;16.29;34.42;102076.13;4797865;29;20410;-87
2023/12/19 10:36:09;;;;;;;1.13;1.02;;;;;;;16.47;35.28;102068.66;4795282;29;20399;-87
2023/12/19 10:38:55;;;;;;;0.95;0.88;;;;;;;16.52;35.25;102068.16;4792746;29;20487;-85
2023/12/19 10:41:28;;;;;;;0.10;0.10;;;;;;;16.55;34.58;102062.47;4792205;29;20934;-85
2023/12/19 10:43:56;;;;;;;0.10;0.10;;;;;;;16.60;33.96;102060.91;4793213;29;20744;-86
2023/12/19 10:46:26;;;;;;;0.20;0.20;;;;;;;16.66;33.69;102045.97;4794299;29;20398;-85
2023/12/19 10:49:00;;;;;;;0.30;0.30;;;;;;;16.76;33.71;102041.22;4794448;29;20398;-85
2023/12/19 10:51:42;;;;;;;0.20;0.20;;;;;;;16.75;33.20;102044.09;4783368;29;20438;-87
2023/12/19 10:54:14;;;;;;;0.20;0.20;;;;;;;16.81;33.50;102044.19;4796991;29;20455;-85
2023/12/19 10:57:04;;;;;;;0.10;0.10;;;;;;;16.91;33.83;102035.97;4796680;29;20411;-85
2023/12/19 10:59:58;;;;;;;0.10;0.10;;;;;;;17.04;33.26;102038.03;4796163;29;20441;-85
2023/12/19 11:02:35;;;;;;;0.13;0.13;;;;;;;17.00;33.61;102031.38;4796637;29;20399;-86
2023/12/19 11:05:17;;;;;;;0.10;0.10;;;;;;;16.91;33.20;102019.88;4794134;29;20756;-85
2023/12/19 11:07:44;;;;;;;0.30;0.30;;;;;;;16.95;32.68;102021.19;4793599;29;20411;-85
2023/12/19 11:10:11;;;;;;;0.05;0.05;;;;;;;17.11;32.83;102014.03;4793210;29;20407;-88
2023/12/19 11:12:37;;;;;;;0.30;0.30;;;;;;;17.22;32.63;102008.22;4808458;29;20399;-85
2023/12/19 11:15:05;;;;;;;0.10;0.10;;;;;;;17.24;32.72;102006.19;4791671;29;20456;-86
2023/12/19 11:18:06;;;;;;;0.20;0.20;;;;;;;17.36;32.85;102002.06;4792816;29;20415;-85
2023/12/19 11:20:45;;;;;;;0.17;0.17;;;;;;;17.20;32.57;101981.59;4781999;29;20494;-84
2023/12/19 11:23:48;;;;;;;0.10;0.10;;;;;;;17.33;32.52;101983.66;4793366;29;20427;-86
2023/12/19 11:26:21;;;;;;;0.00;0.00;;;;;;;17.46;32.82;101974.97;4794242;29;20406;-87
2023/12/19 11:28:47;;;;;;;0.10;0.10;;;;;;;17.40;32.80;101973.03;4795482;29;20410;-86
2023/12/19 11:31:30;;;;;;;0.20;0.20;;;;;;;17.47;32.94;101968.59;4790890;29;20841;-85
2023/12/19 11:34:03;;;;;;;0.20;0.20;;;;;;;17.47;33.50;101965.91;4792451;29;20490;-86
2023/12/19 11:36:28;;;;;;;0.10;0.10;;;;;;;17.44;32.34;101962.78;4794741;29;20468;-85
2023/12/19 11:39:30;;;;;;;0.20;0.20;;;;;;;17.59;32.76;101966.25;4796597;29;20418;-87
2023/12/19 11:41:56;;;;;;;0.10;0.10;;;;;;;17.67;33.01;101958.13;4791766;29;20467;-85
2023/12/19 11:44:43;;;;;;;0.43;0.37;;;;;;;17.69;32.35;101957.97;4791395;29;20479;-86
2023/12/19 11:47:18;;;;;;;0.10;0.10;;;;;;;17.56;32.47;101945.22;4792377;29;20406;-86
2023/12/19 11:49:48;;;;;;;0.10;0.10;;;;;;;17.58;33.03;101952.03;4790987;29;20418;-85
2023/12/19 11:52:36;;;;;;;0.08;0.08;;;;;;;17.58;31.96;101944.00;4778573;29;20431;-85
2023/12/19 11:55:04;;;;;;;0.20;0.20;;;;;;;17.73;31.30;101943.16;4774904;30;20421;-86
2023/12/19 11:57:33;;;;;;;0.20;0.20;;;;;;;17.83;31.40;101927.59;4776068;30;20813;-86
2023/12/19 12:00:01;;;;;;;0.15;0.15;;;;;;;17.85;32.02;101928.28;4776515;30;20842;-87
2023/12/19 12:02:33;;;;;;;0.20;0.20;;;;;;;17.89;32.43;101934.09;4775927;30;20447;-86
2023/12/19 12:05:13;;;;;;;0.40;0.40;;;;;;;17.90;32.75;101927.72;4773908;30;20488;-87
2023/12/19 12:07:41;;;;;;;0.20;0.20;;;;;;;17.86;32.50;101927.25;4773726;30;20420;-85
2023/12/19 12:10:09;;;;;;;0.20;0.20;;;;;;;17.92;32.14;101928.34;4772078;30;20412;-88
2023/12/19 12:12:40;;;;;;;0.17;0.17;;;;;;;17.90;31.45;101914.31;4771610;30;20449;-85
2023/12/19 12:15:14;;;;;;;0.38;0.38;;;;;;;17.91;31.00;101919.44;4770464;30;20420;-86
2023/12/19 12:17:40;;;;;;;0.20;0.20;;;;;;;17.98;30.89;101922.22;4771865;30;20408;-84
2023/12/19 12:20:06;;;;;;;0.30;0.20;;;;;;;17.99;31.45;101910.47;4771646;30;20472;-86
2023/12/19 12:22:32;;;;;;;0.60;0.60;;;;;;;18.09;31.19;101918.22;4772098;30;20570;-86
2023/12/19 12:25:02;;;;;;;0.35;0.35;;;;;;;18.10;31.33;101911.84;4772912;30;20404;-86
2023/12/19 12:27:28;;;;;;;0.20;0.20;;;;;;;18.10;31.04;101907.28;4774611;30;20777;-86
2023/12/19 12:29:57;;;;;;;0.25;0.25;;;;;;;18.08;31.93;101898.59;4776156;30;20420;-85
2023/12/19 12:32:27;;;;;;;0.20;0.20;;;;;;;18.03;32.66;101908.25;4777354;30;20412;-86
2023/12/19 12:34:53;;;;;;;0.20;0.20;;;;;;;18.10;31.98;101903.78;4775990;30;20942;-88
2023/12/19 12:37:20;;;;;;;0.20;0.20;;;;;;;18.17;30.90;101901.16;4759554;30;20484;-87
2023/12/19 12:39:46;;;;;;;0.20;0.20;;;;;;;18.24;30.67;101897.53;4758795;30;20785;-86
2023/12/19 12:42:13;;;;;;;0.43;0.43;;;;;;;18.25;31.02;101899.16;4774500;30;20491;-87
2023/12/19 12:44:43;;;;;;;0.20;0.20;;;;;;;18.28;31.56;101898.78;4771916;30;20446;-85
2023/12/19 12:47:22;;;;;;;0.60;0.20;;;;;;;18.24;31.54;101899.34;4772673;30;20405;-86
2023/12/19 12:50:04;;;;;;;0.30;0.30;;;;;;;18.27;31.86;101897.13;4777745;30;20463;-88
2023/12/19 12:52:30;;;;;;;0.10;0.10;;;;;;;18.37;31.39;101893.31;4789984;29;20827;-86
2023/12/19 12:55:16;;;;;;;0.30;0.30;;;;;;;18.43;31.47;101885.28;4792476;29;20418;-85
2023/12/19 12:57:42;;;;;;;0.30;0.30;;;;;;;18.45;31.93;101880.56;4800331;29;20407;-88
2023/12/19 13:00:11;;;;;;;0.22;0.22;;;;;;;18.41;31.78;101886.53;4811141;29;20529;-86
2023/12/19 13:02:38;;;;;;;0.60;0.40;;;;;;;18.31;30.77;101878.78;4807137;29;20417;-86
2023/12/19 13:05:04;;;;;;;0.30;0.30;;;;;;;18.33;31.32;101874.06;4810026;29;20434;-87
2023/12/19 13:07:30;;;;;;;0.30;0.30;;;;;;;18.36;30.77;101870.16;4804477;29;20411;-88
2023/12/19 13:09:56;;;;;;;1.10;0.30;;;;;;;18.36;30.37;101862.94;4793511;29;20893;-86
2023/12/19 13:12:23;;;;;;;0.10;0.10;;;;;;;18.45;30.57;101858.25;4791240;29;20406;-85
2023/12/19 13:14:52;;;;;;;0.40;0.40;;;;;;;18.49;30.69;101856.84;4790720;29;20411;-85
2023/12/19 13:17:17;;;;;;;0.10;0.10;;;;;;;18.49;30.76;101852.31;4807676;29;20415;-85
2023/12/19 13:19:43;;;;;;;0.17;0.17;;;;;;;18.40;31.32;101848.13;4789627;29;20410;-88
2023/12/19 13:22:12;;;;;;;0.27;0.20;;;;;;;18.44;31.54;101849.38;4791080;29;20768;-87
2023/12/19 13:24:37;;;;;;;0.28;0.17;;;;;;;18.39;31.49;101846.44;4788807;29;20434;-85
2023/12/19 13:27:09;;;;;;;0.20;0.20;;;;;;;18.41;30.85;101855.13;4790129;29;20414;-85